Time;durP1;ratioP1;P1;durP2;ratioP2;P2;SDS_P1;SDS_P2;PMS_P1;PMS_P2;Temp;Humidity;BMP_temperature;BMP_pressure;BME280_temperature;BME280_humidity;BME280_pressure;Samples;Min_cycle;Max_cycle;Signal;HPM_P1;HPM_P2
2021/11/17 02:28:20;;;;;;;119.22;46.08;;;;;;;6.03;100.00;98008.19;4975091;28;20523;-78
2021/11/17 02:30:48;;;;;;;115.80;44.55;;;;;;;5.99;100.00;98000.91;4975522;28;20097;-78
2021/11/17 02:33:26;;;;;;;123.40;46.55;;;;;;;6.00;100.00;98008.72;4975084;28;20062;-78
2021/11/17 02:36:17;;;;;;;118.75;46.22;;;;;;;6.03;100.00;98002.00;4958927;28;20074;-78
2021/11/17 02:39:02;;;;;;;117.68;45.10;;;;;;;6.03;100.00;97996.63;4945427;28;20070;-78
2021/11/17 02:41:56;;;;;;;132.32;46.85;;;;;;;5.93;100.00;98002.03;4944356;28;20074;-78
2021/11/17 02:44:42;;;;;;;125.47;45.65;;;;;;;5.95;100.00;97992.63;4940033;29;20137;-78
2021/11/17 02:47:14;;;;;;;127.35;46.72;;;;;;;6.00;100.00;97997.97;4956461;29;20081;-78
2021/11/17 02:49:43;;;;;;;124.55;46.45;;;;;;;6.05;100.00;97991.75;4941464;29;20059;-79
2021/11/17 02:52:16;;;;;;;125.43;47.40;;;;;;;6.03;100.00;97993.94;4957450;29;20074;-79
2021/11/17 02:54:45;;;;;;;130.98;48.83;;;;;;;6.10;100.00;97991.72;4958994;29;20058;-79
2021/11/17 02:57:37;;;;;;;134.50;46.92;;;;;;;6.25;100.00;97992.47;4941961;29;20055;-79
2021/11/17 03:00:25;;;;;;;129.25;46.47;;;;;;;6.16;100.00;97991.44;4944799;29;20122;-78
2021/11/17 03:03:06;;;;;;;118.75;45.35;;;;;;;6.27;100.00;98002.94;4943309;29;20055;-78
2021/11/17 03:05:53;;;;;;;130.23;48.40;;;;;;;6.38;100.00;97987.53;4949541;29;20091;-78
2021/11/17 03:08:38;;;;;;;126.70;47.03;;;;;;;6.39;100.00;97989.97;4952109;29;20047;-79
2021/11/17 03:11:39;;;;;;;129.18;46.60;;;;;;;6.28;100.00;97991.09;4941936;29;20503;-79
2021/11/17 03:14:16;;;;;;;130.73;46.60;;;;;;;6.34;100.00;97983.81;4939023;29;20110;-79
2021/11/17 03:16:53;;;;;;;123.30;45.97;;;;;;;6.38;100.00;97990.22;4941376;29;20066;-79
2021/11/17 03:19:58;;;;;;;125.18;46.15;;;;;;;6.42;100.00;97988.59;4942256;29;20055;-79
2021/11/17 03:22:53;;;;;;;120.07;44.97;;;;;;;6.40;100.00;97980.78;4947630;29;20106;-78
2021/11/17 03:25:29;;;;;;;125.88;45.05;;;;;;;6.23;100.00;97991.13;4926232;29;20305;-79
2021/11/17 03:28:09;;;;;;;119.28;44.50;;;;;;;6.18;100.00;97994.66;4940595;29;20055;-78
2021/11/17 03:30:57;;;;;;;131.60;48.45;;;;;;;6.20;100.00;98000.56;4940285;29;20117;-79
2021/11/17 03:33:54;;;;;;;137.73;47.83;;;;;;;6.15;100.00;97997.88;4938456;29;20464;-80
2021/11/17 03:36:43;;;;;;;135.60;48.20;;;;;;;6.02;100.00;98000.38;4957482;29;20058;-79
2021/11/17 03:39:47;;;;;;;132.38;47.53;;;;;;;6.05;100.00;97999.81;4940849;29;20051;-79
2021/11/17 03:42:54;;;;;;;134.80;48.00;;;;;;;6.03;100.00;97999.31;4957517;29;20051;-79
2021/11/17 03:45:36;;;;;;;142.13;50.10;;;;;;;6.02;100.00;97995.81;4904901;29;20070;-79
2021/11/17 03:48:40;;;;;;;146.98;51.03;;;;;;;5.94;100.00;97987.50;4925523;29;20047;-79
2021/11/17 03:51:26;;;;;;;150.55;50.50;;;;;;;5.99;100.00;97977.53;4929073;29;20071;-79
2021/11/17 03:54:08;;;;;;;145.50;49.33;;;;;;;6.03;100.00;97988.56;4940418;29;20059;-79
2021/11/17 03:56:38;;;;;;;150.05;48.97;;;;;;;6.04;100.00;97984.81;4942081;29;20517;-79
2021/11/17 03:59:29;;;;;;;148.00;48.10;;;;;;;6.01;100.00;97979.97;4938942;29;20475;-78
2021/11/17 04:02:05;;;;;;;132.32;47.25;;;;;;;5.93;100.00;97975.19;4941817;29;20082;-78
2021/11/17 04:04:44;;;;;;;;;;;;;;;5.79;100.00;97984.88;4943533;29;20051;-78
2021/11/17 04:07:31;;;;;;;147.18;47.72;;;;;;;5.73;100.00;97984.06;4939411;29;19974;-78
2021/11/17 04:10:15;;;;;;;143.18;48.15;;;;;;;5.89;100.00;97974.09;4939760;29;20051;-78
2021/11/17 04:12:59;;;;;;;148.90;48.25;;;;;;;5.90;100.00;97971.16;4921364;29;20051;-77
2021/11/17 04:16:12;;;;;;;150.45;49.10;;;;;;;5.82;100.00;97970.88;4939766;29;20463;-78
2021/11/17 04:19:14;;;;;;;163.45;50.08;;;;;;;5.84;100.00;97971.41;4954037;29;20103;-78
2021/11/17 04:21:43;;;;;;;160.60;51.40;;;;;;;5.94;100.00;97982.13;4910325;29;20047;-77
2021/11/17 04:24:41;;;;;;;165.73;50.42;;;;;;;6.01;100.00;97985.34;4937546;29;20051;-77
2021/11/17 04:27:29;;;;;;;159.18;51.40;;;;;;;5.98;100.00;97983.22;4955806;29;20055;-77
2021/11/17 04:30:25;;;;;;;160.35;49.22;;;;;;;5.95;100.00;97989.13;4924469;29;20051;-78
2021/11/17 04:33:24;;;;;;;162.73;48.70;;;;;;;5.96;100.00;97988.06;4940467;29;20059;-79
2021/11/17 04:36:13;;;;;;;156.48;49.85;;;;;;;5.97;100.00;97982.41;4886916;29;20058;-79
2021/11/17 04:38:54;;;;;;;156.45;49.25;;;;;;;5.94;100.00;97999.06;4956011;29;20122;-79
2021/11/17 04:41:27;;;;;;;153.88;49.75;;;;;;;5.98;100.00;97988.59;4957131;29;20129;-78
2021/11/17 04:44:15;;;;;;;149.52;49.53;;;;;;;5.90;100.00;97989.97;4956344;29;20050;-79
2021/11/17 04:47:11;;;;;;;152.57;48.28;;;;;;;5.79;100.00;97987.56;4958209;28;20051;-79
2021/11/17 04:49:50;;;;;;;157.43;48.55;;;;;;;5.79;100.00;97991.06;4948372;28;20105;-79
2021/11/17 04:52:38;;;;;;;154.02;48.53;;;;;;;5.78;100.00;97980.59;4943518;28;20061;-79
2021/11/17 04:55:17;;;;;;;188.60;51.50;;;;;;;5.74;100.00;97985.69;4975822;28;20058;-80
2021/11/17 04:58:12;;;;;;;179.07;49.75;;;;;;;5.70;100.00;97989.22;4975864;28;20142;-79
2021/11/17 05:01:01;;;;;;;177.23;49.65;;;;;;;5.62;100.00;97963.72;4978653;23;20856;-84
2021/11/17 05:03:29;;;;;;;181.27;48.95;;;;;;;5.78;100.00;97997.50;4986211;28;20141;-87
2021/11/17 05:06:30;;;;;;;182.00;50.38;;;;;;;5.52;100.00;97953.03;5016866;28;20060;-86
2021/11/17 05:09:28;;;;;;;177.73;50.00;;;;;;;5.76;100.00;97998.84;4987166;28;20046;-86
2021/11/17 05:12:22;;;;;;;186.43;52.30;;;;;;;5.76;100.00;97991.59;5001240;28;20054;-83
2021/11/17 05:15:29;;;;;;;178.13;51.72;;;;;;;5.82;100.00;97993.19;5027255;23;20045;-84
2021/11/17 05:17:59;;;;;;;170.50;50.35;;;;;;;5.82;100.00;98005.81;5005435;28;20070;-84
2021/11/17 05:21:03;;;;;;;168.48;52.28;;;;;;;5.83;100.00;97992.13;5017076;28;20092;-85
2021/11/17 05:24:01;;;;;;;165.82;50.17;;;;;;;5.86;100.00;97998.84;4998881;28;20061;-84
2021/11/17 05:26:50;;;;;;;179.18;53.20;;;;;;;5.68;100.00;97976.84;4986478;28;20050;-84
2021/11/17 05:29:41;;;;;;;180.88;53.25;;;;;;;5.73;100.00;98005.56;4985962;28;20086;-85
2021/11/17 05:32:37;;;;;;;186.48;55.22;;;;;;;5.73;100.00;97989.44;4998317;28;20026;-84
2021/11/17 05:35:20;;;;;;;176.65;53.78;;;;;;;5.56;100.00;97980.94;5012385;28;20050;-85
2021/11/17 05:37:53;;;;;;;187.10;54.22;;;;;;;5.68;100.00;97991.38;4985359;28;20073;-84
2021/11/17 05:40:34;;;;;;;175.48;53.63;;;;;;;5.73;100.00;97994.81;4984470;28;20081;-85
2021/11/17 05:43:10;;;;;;;174.32;50.97;;;;;;;5.76;100.00;97988.09;4985856;28;20046;-85
2021/11/17 05:46:03;;;;;;;174.98;51.30;;;;;;;5.73;100.00;97981.41;4998473;28;20034;-84
2021/11/17 05:48:36;;;;;;;164.88;51.35;;;;;;;5.73;100.00;97992.13;4991265;28;20054;-85
2021/11/17 05:51:20;;;;;;;168.18;49.28;;;;;;;5.73;100.00;97988.66;5005869;28;20066;-85
2021/11/17 05:54:02;;;;;;;175.88;50.63;;;;;;;5.71;100.00;98001.53;4989350;28;20081;-86
2021/11/17 05:56:49;;;;;;;179.00;51.53;;;;;;;5.59;100.00;97991.13;5004011;28;20046;-85
2021/11/17 05:59:22;;;;;;;183.00;51.95;;;;;;;5.54;100.00;98013.44;5006918;28;20108;-85
2021/11/17 06:01:55;;;;;;;182.25;53.30;;;;;;;5.58;100.00;98013.69;4988421;28;20050;-85
2021/11/17 06:04:26;;;;;;;189.02;52.58;;;;;;;5.62;100.00;98012.88;5005017;28;20560;-85
2021/11/17 06:06:54;;;;;;;183.23;52.60;;;;;;;5.62;100.00;98007.50;5023177;28;20486;-85
2021/11/17 06:09:20;;;;;;;164.85;48.53;;;;;;;5.68;100.00;98020.91;5003461;28;20064;-85
2021/11/17 06:12:01;;;;;;;178.32;50.30;;;;;;;5.59;100.00;98009.94;5009156;28;20057;-85
2021/11/17 06:14:39;;;;;;;174.75;49.58;;;;;;;5.55;100.00;98025.78;5022484;28;20058;-84
2021/11/17 06:17:23;;;;;;;165.70;47.97;;;;;;;5.51;100.00;98018.53;5001952;28;20042;-84
2021/11/17 06:19:52;;;;;;;163.70;48.10;;;;;;;5.58;100.00;98027.91;5016079;28;20218;-83
2021/11/17 06:22:22;;;;;;;166.80;48.22;;;;;;;5.48;100.00;98017.22;5007051;28;20117;-85
2021/11/17 06:24:50;;;;;;;157.45;44.90;;;;;;;5.59;100.00;98028.72;5027535;28;20046;-84
2021/11/17 06:27:22;;;;;;;163.25;47.63;;;;;;;5.64;100.00;98034.09;5019663;28;20101;-86
2021/11/17 06:29:53;;;;;;;165.70;47.63;;;;;;;5.68;100.00;98019.81;5006270;28;20046;-84
2021/11/17 06:32:22;;;;;;;171.95;47.20;;;;;;;5.57;100.00;98020.16;5009344;28;20104;-85
2021/11/17 06:34:54;;;;;;;176.45;49.08;;;;;;;5.49;100.00;98028.75;5025810;28;20069;-84
2021/11/17 06:37:30;;;;;;;169.82;47.13;;;;;;;5.52;100.00;98034.38;5027441;28;20321;-86
2021/11/17 06:40:00;;;;;;;160.98;47.25;;;;;;;5.53;100.00;98027.94;4990627;28;20112;-83
2021/11/17 06:42:42;;;;;;;174.70;47.92;;;;;;;5.64;100.00;98036.75;5025727;28;20057;-87
2021/11/17 06:45:38;;;;;;;162.32;46.72;;;;;;;5.59;100.00;98010.75;5024259;28;20062;-84
2021/11/17 06:48:07;;;;;;;164.38;47.15;;;;;;;5.76;100.00;98042.63;5032754;28;20046;-85
2021/11/17 06:50:39;;;;;;;169.48;47.17;;;;;;;5.81;100.00;98041.84;5028484;28;20056;-84
2021/11/17 06:53:09;;;;;;;152.85;47.75;;;;;;;5.72;100.00;98038.91;5029563;28;20046;-82
2021/11/17 06:55:36;;;;;;;141.38;45.17;;;;;;;5.61;100.00;98048.88;5036394;28;20030;-84
2021/11/17 06:58:06;;;;;;;144.60;44.95;;;;;;;5.63;100.00;98054.75;5030197;28;20047;-86
2021/11/17 07:00:45;;;;;;;141.02;44.25;;;;;;;5.47;100.00;98037.06;5018667;28;20140;-86
2021/11/17 07:03:15;;;;;;;101.43;35.10;;;;;;;5.60;100.00;98060.66;5010661;28;20049;-88
2021/11/17 07:05:56;;;;;;;84.63;31.25;;;;;;;5.47;100.00;98038.97;5016470;28;20053;-89
2021/11/17 07:08:37;;;;;;;77.90;28.92;;;;;;;5.49;100.00;98036.81;5010179;28;20034;-87
2021/11/17 07:11:12;;;;;;;77.90;27.73;;;;;;;5.47;100.00;98020.19;5015327;28;20077;-87
2021/11/17 07:14:13;;;;;;;97.15;32.10;;;;;;;5.67;100.00;98057.72;5006821;28;20853;-83
2021/11/17 07:16:43;;;;;;;111.68;36.55;;;;;;;5.71;100.00;98063.31;5013171;28;20042;-82
2021/11/17 07:19:12;;;;;;;105.78;36.15;;;;;;;5.74;100.00;98063.59;5006945;28;20153;-84
2021/11/17 07:21:42;;;;;;;109.60;36.83;;;;;;;5.76;100.00;98060.63;5009951;28;20085;-86
2021/11/17 07:24:34;;;;;;;113.18;35.28;;;;;;;5.63;100.00;98045.88;5049852;23;20057;-82
2021/11/17 07:27:29;;;;;;;102.07;35.30;;;;;;;5.74;100.00;98060.91;4972030;28;20054;-85
2021/11/17 07:29:57;;;;;;;100.45;35.10;;;;;;;5.56;100.00;98059.63;4972400;28;20151;-81
2021/11/17 07:32:27;;;;;;;99.25;35.40;;;;;;;5.44;100.00;98047.56;4957845;28;20134;-82
2021/11/17 07:34:55;;;;;;;110.22;35.35;;;;;;;5.36;100.00;98051.59;4958910;28;20105;-84
2021/11/17 07:37:32;;;;;;;110.40;35.97;;;;;;;5.56;100.00;98086.47;4954312;28;20120;-85
2021/11/17 07:49:35;;;;;;;;;;;;;;;;;;;;;
2021/11/17 08:01:39;;;;;;;101.68;30.17;;;;;;;5.33;100.00;98059.38;3075901;23;20046;-84
2021/11/17 08:05:02;;;;;;;87.72;29.90;;;;;;;5.44;100.00;98095.88;4962460;28;20046;-84
2021/11/17 08:08:28;;;;;;;90.25;28.25;;;;;;;5.37;100.00;98072.00;4971980;28;20054;-82
2021/11/17 08:13:39;;;;;;;84.53;28.13;;;;;;;5.51;100.00;98094.53;4974287;28;20035;-83
2021/11/17 08:16:27;;;;;;;91.28;28.15;;;;;;;5.41;100.00;98091.06;4974534;28;20055;-86
2021/11/17 08:18:58;;;;;;;79.63;26.55;;;;;;;5.30;100.00;98070.66;4960039;28;20031;-85
2021/11/17 08:21:32;;;;;;;91.32;28.10;;;;;;;5.42;100.00;98084.63;4944026;28;20059;-85
2021/11/17 08:24:06;;;;;;;80.85;27.42;;;;;;;5.34;100.00;98075.19;4940662;28;20103;-87
2021/11/17 08:27:05;;;;;;;82.20;27.42;;;;;;;5.44;100.00;98094.00;4983974;23;20065;-84
2021/11/17 08:29:52;;;;;;;85.47;26.83;;;;;;;5.50;100.00;98078.69;4966471;28;20568;-82
2021/11/17 08:32:36;;;;;;;82.63;27.05;;;;;;;5.46;100.00;98083.81;4954031;28;20142;-81
2021/11/17 08:35:39;;;;;;;75.88;24.90;;;;;;;5.55;100.00;98092.09;4954555;28;20518;-81
2021/11/17 08:38:30;;;;;;;63.58;22.08;;;;;;;5.59;100.00;98082.44;4962820;28;20476;-80
2021/11/17 08:41:41;;;;;;;59.45;21.60;;;;;;;5.51;100.00;98086.47;4979392;28;20411;-82
2021/11/17 08:44:40;;;;;;;57.03;21.00;;;;;;;5.58;100.00;98075.44;4976509;28;20057;-84
2021/11/17 08:47:50;;;;;;;57.70;21.08;;;;;;;5.49;100.00;98067.16;4973795;28;20058;-83
2021/11/17 08:51:15;;;;;;;49.55;18.92;;;;;;;5.66;100.00;98097.19;4996335;28;20046;-85
2021/11/17 08:54:10;;;;;;;;;;;;;;;;;;;;;
2021/11/17 09:05:07;;;;;;;36.03;15.30;;;;;;;5.48;100.00;98116.56;4972365;28;20116;-83
2021/11/17 09:08:13;;;;;;;44.47;16.50;;;;;;;5.52;100.00;98122.97;4951511;29;20051;-84
2021/11/17 09:11:17;;;;;;;42.10;16.90;;;;;;;5.35;100.00;98092.13;4996172;23;20058;-85
2021/11/17 09:15:06;;;;;;;41.00;16.08;;;;;;;5.54;100.00;98088.63;4969980;28;20046;-82
2021/11/17 09:18:05;;;;;;;38.30;16.00;;;;;;;5.62;100.00;98096.13;4961611;28;20062;-80
2021/11/17 09:20:41;;;;;;;;;;;;;;;5.86;100.00;98109.78;4977330;28;20069;-82
2021/11/17 09:23:32;;;;;;;31.42;13.93;;;;;;;5.86;100.00;98087.50;4995275;28;19921;-85
2021/11/17 09:26:39;;;;;;;31.20;13.05;;;;;;;5.72;100.00;98103.34;4973615;28;20047;-85
2021/11/17 09:29:46;;;;;;;28.67;13.07;;;;;;;5.71;100.00;98085.63;4965527;28;20104;-84
2021/11/17 09:32:44;;;;;;;29.60;12.88;;;;;;;6.03;100.00;98098.75;4991571;28;20072;-85
2021/11/17 09:35:49;;;;;;;26.30;12.35;;;;;;;6.14;100.00;98097.63;4968332;28;20077;-84
2021/11/17 09:38:31;;;;;;;24.52;11.85;;;;;;;6.05;100.00;98088.50;4979902;28;20090;-86
2021/11/17 09:41:24;;;;;;;24.40;10.98;;;;;;;5.99;100.00;98087.72;4976844;28;20120;-86
2021/11/17 09:44:30;;;;;;;;;;;;;;;;;;;;;
2021/11/17 09:47:31;;;;;;;21.77;10.32;;;;;;;5.95;100.00;98075.94;4913160;29;20060;-87
2021/11/17 09:50:51;;;;;;;24.13;10.25;;;;;;;6.02;100.00;98075.63;4904792;29;20087;-85
2021/11/17 09:54:24;;;;;;;22.38;10.55;;;;;;;5.91;100.00;98111.69;4927139;29;20074;-86
2021/11/17 09:58:35;;;;;;;20.83;9.98;;;;;;;5.71;100.00;98090.19;4925177;29;20036;-86
2021/11/17 10:01:53;;;;;;;23.13;11.10;;;;;;;5.66;100.00;98085.63;4855306;29;20278;-86
2021/11/17 10:15:07;;;;;;;27.38;12.00;;;;;;;5.93;100.00;98121.06;4911696;29;20124;-84
2021/11/17 10:18:54;;;;;;;25.30;11.13;;;;;;;5.98;100.00;98113.00;4901423;29;20060;-85
2021/11/17 10:21:54;;;;;;;23.90;11.50;;;;;;;5.95;100.00;98110.03;4901543;29;20084;-86
2021/11/17 10:25:00;;;;;;;;;;;;;;;5.93;100.00;98118.41;4953182;28;20126;-86
2021/11/17 10:28:08;;;;;;;22.90;10.32;;;;;;;5.87;100.00;98081.84;4974734;28;19922;-84
2021/11/17 10:33:55;;;;;;;23.63;10.05;;;;;;;5.89;100.00;98079.69;3346452;26;20132;-83
2021/11/17 10:37:09;;;;;;;19.75;9.88;;;;;;;6.08;100.00;98093.34;4976046;28;20133;-83
2021/11/17 10:40:23;;;;;;;21.97;10.77;;;;;;;6.04;100.00;98063.50;4967637;28;20105;-84
2021/11/17 10:44:26;;;;;;;;;;;;;;;;;;;;;
2021/11/17 10:52:07;;;;;;;21.35;11.05;;;;;;;6.15;100.00;98058.91;4936777;29;20070;-91
2021/11/17 10:55:37;;;;;;;;;;;;;;;;;;;;;
2021/11/17 10:58:28;;;;;;;21.50;11.90;;;;;;;6.00;100.00;98045.53;4916163;29;20051;-90
2021/11/17 11:01:38;;;;;;;20.48;10.30;;;;;;;6.10;100.00;98080.44;4930162;23;20052;-78
2021/11/17 11:04:14;;;;;;;24.25;12.75;;;;;;;6.03;100.00;98061.94;4970611;28;20082;-79
2021/11/17 11:06:46;;;;;;;27.23;14.30;;;;;;;6.26;100.00;98071.22;4995792;28;20157;-80
2021/11/17 11:09:25;;;;;;;32.97;15.65;;;;;;;6.32;100.00;98077.38;4995135;28;20050;-78
2021/11/17 11:11:54;;;;;;;28.10;15.57;;;;;;;6.39;100.00;98070.63;4976959;28;20066;-79
2021/11/17 11:14:25;;;;;;;26.20;14.45;;;;;;;6.47;100.00;98071.94;4988852;28;20470;-80
2021/11/17 11:17:59;;;;;;;22.13;11.38;;;;;;;6.41;100.00;98070.34;4973257;28;20055;-80
2021/11/17 11:20:55;;;;;;;19.73;10.07;;;;;;;6.34;100.00;98073.34;4894471;29;20049;-79
2021/11/17 11:23:55;;;;;;;17.75;8.85;;;;;;;6.25;100.00;98062.34;4906897;29;20558;-80
2021/11/17 11:26:24;;;;;;;21.13;9.73;;;;;;;6.29;100.00;98057.25;4973921;28;20598;-80
2021/11/17 11:28:55;;;;;;;18.20;8.95;;;;;;;6.45;100.00;98055.28;4957014;28;20046;-80
2021/11/17 11:31:29;;;;;;;26.02;14.32;;;;;;;6.47;100.00;98047.72;4956624;28;20146;-80
2021/11/17 11:33:56;;;;;;;26.63;13.67;;;;;;;6.38;100.00;98052.88;4968553;28;20113;-80
2021/11/17 11:36:48;;;;;;;23.05;13.25;;;;;;;6.40;100.00;98041.84;4972195;28;20065;-80
2021/11/17 11:39:44;;;;;;;21.63;11.73;;;;;;;6.42;100.00;98042.38;4940683;29;20110;-80
2021/11/17 11:42:18;;;;;;;18.10;9.48;;;;;;;6.35;100.00;98056.09;4953123;29;20113;-79
2021/11/17 11:44:53;;;;;;;15.00;8.60;;;;;;;6.38;100.00;98060.13;4941466;28;20061;-80
2021/11/17 11:47:22;;;;;;;15.32;8.82;;;;;;;6.34;100.00;98062.59;4970626;28;20586;-79
2021/11/17 11:49:56;;;;;;;12.57;7.38;;;;;;;6.28;100.00;98063.69;4957675;28;20059;-80
2021/11/17 11:52:33;;;;;;;13.10;7.20;;;;;;;6.34;100.00;98069.84;4958213;28;20051;-80
2021/11/17 11:54:59;;;;;;;14.63;8.40;;;;;;;6.41;100.00;98064.97;4958615;28;20059;-79
2021/11/17 11:57:28;;;;;;;12.27;6.63;;;;;;;6.07;100.00;98073.72;4958415;28;20129;-80
2021/11/17 11:59:57;;;;;;;13.18;6.78;;;;;;;5.89;100.00;98090.44;4959422;28;20058;-80
2021/11/17 12:02:27;;;;;;;11.20;6.25;;;;;;;5.85;100.00;98084.03;4975874;28;20116;-80
2021/11/17 12:05:00;;;;;;;13.65;6.90;;;;;;;5.61;100.00;98091.81;4957101;28;20054;-79
2021/11/17 12:07:37;;;;;;;12.20;6.82;;;;;;;5.57;100.00;98090.75;4956090;28;20054;-79
2021/11/17 12:10:21;;;;;;;17.23;7.15;;;;;;;5.47;100.00;98111.47;4959115;28;20063;-80
2021/11/17 12:12:48;;;;;;;12.82;6.93;;;;;;;5.35;100.00;98102.84;4959290;28;20065;-79
2021/11/17 12:15:23;;;;;;;12.18;6.97;;;;;;;5.43;100.00;98113.88;4956253;28;20062;-79
2021/11/17 12:18:03;;;;;;;;;;;;;;;5.34;100.00;98103.94;4953730;28;20140;-79
2021/11/17 12:20:34;;;;;;;11.10;6.53;;;;;;;5.38;100.00;98108.50;4974474;28;19968;-79
2021/11/17 12:23:14;;;;;;;13.32;6.90;;;;;;;5.30;100.00;98118.97;4992811;28;20058;-78
2021/11/17 12:25:51;;;;;;;14.00;7.28;;;;;;;5.40;100.00;98110.91;4976014;28;20058;-79
2021/11/17 12:28:18;;;;;;;13.52;6.88;;;;;;;5.36;100.00;98115.22;4981459;28;20054;-79
2021/11/17 12:30:58;;;;;;;11.40;6.65;;;;;;;5.33;100.00;98116.56;4939993;28;20069;-79
2021/11/17 12:33:46;;;;;;;13.13;7.35;;;;;;;5.33;100.00;98105.00;4972734;28;20060;-79
2021/11/17 12:36:16;;;;;;;13.85;7.28;;;;;;;5.42;100.00;98117.63;4971745;28;20503;-79
2021/11/17 12:38:45;;;;;;;13.88;6.72;;;;;;;5.24;100.00;98122.75;4955496;28;20062;-79
2021/11/17 12:41:24;;;;;;;11.65;6.93;;;;;;;5.33;100.00;98124.63;4956486;28;20058;-80
2021/11/17 12:44:52;;;;;;;11.95;6.55;;;;;;;5.36;100.00;98109.84;4972853;28;20455;-79
2021/11/17 12:48:06;;;;;;;11.52;6.47;;;;;;;5.45;100.00;98124.31;4914589;29;20087;-80
2021/11/17 12:50:46;;;;;;;10.90;5.75;;;;;;;5.43;100.00;98119.25;4960920;28;20055;-80
2021/11/17 12:53:30;;;;;;;11.07;5.78;;;;;;;5.33;100.00;98115.75;4955923;28;20074;-80
2021/11/17 12:56:10;;;;;;;10.23;5.95;;;;;;;5.38;100.00;98129.97;4955674;28;20090;-79
2021/11/17 12:58:49;;;;;;;11.43;6.38;;;;;;;5.29;100.00;98128.13;4955983;28;20054;-79
2021/11/17 13:01:20;;;;;;;11.88;6.70;;;;;;;5.32;100.00;98132.91;4954612;28;20499;-78
2021/11/17 13:03:49;;;;;;;10.50;5.53;;;;;;;5.27;100.00;98124.88;4972646;28;20567;-78
2021/11/17 13:06:28;;;;;;;10.20;5.55;;;;;;;5.28;100.00;98124.63;4959848;28;20061;-78
2021/11/17 13:09:06;;;;;;;11.20;6.32;;;;;;;5.41;100.00;98112.53;4990538;28;20054;-78
2021/11/17 13:11:32;;;;;;;12.05;5.75;;;;;;;5.43;100.00;98111.19;4971055;28;20383;-78
2021/11/17 13:13:59;;;;;;;10.13;5.90;;;;;;;5.47;100.00;98106.09;4972856;28;20475;-79
2021/11/17 13:16:39;;;;;;;11.93;5.93;;;;;;;5.40;100.00;98105.53;4954503;28;20086;-79
2021/11/17 13:19:30;;;;;;;10.45;5.60;;;;;;;5.45;100.00;98109.03;4957079;28;20039;-79
2021/11/17 13:22:04;;;;;;;11.40;5.85;;;;;;;5.48;100.00;98118.44;4952595;28;20047;-78
2021/11/17 13:24:39;;;;;;;10.85;5.65;;;;;;;5.41;100.00;98113.34;4972559;28;20116;-79
2021/11/17 13:27:07;;;;;;;9.93;5.43;;;;;;;5.45;100.00;98116.28;4972600;28;20553;-79
2021/11/17 13:29:42;;;;;;;9.70;5.90;;;;;;;5.46;100.00;98113.34;4981565;28;20043;-78
2021/11/17 13:32:13;;;;;;;9.25;5.65;;;;;;;5.45;100.00;98113.59;4959137;28;20055;-78
2021/11/17 13:34:43;;;;;;;9.77;5.75;;;;;;;5.48;100.00;98113.06;4955178;28;20082;-79
2021/11/17 13:37:22;;;;;;;8.20;5.38;;;;;;;5.39;100.00;98122.75;4955468;28;20054;-78
2021/11/17 13:39:58;;;;;;;7.90;4.93;;;;;;;5.41;100.00;98116.03;4971619;28;20105;-78
2021/11/17 13:42:27;;;;;;;11.55;5.13;;;;;;;5.56;100.00;98123.25;4988286;28;20061;-79
2021/11/17 13:45:07;;;;;;;10.80;5.50;;;;;;;5.52;100.00;98130.25;4989183;28;20104;-79
2021/11/17 13:47:34;;;;;;;8.27;5.00;;;;;;;5.61;100.00;98120.56;4981462;28;20058;-79
2021/11/17 13:50:02;;;;;;;9.75;5.45;;;;;;;5.56;100.00;98125.94;4965274;28;20110;-78
2021/11/17 13:52:33;;;;;;;9.57;5.32;;;;;;;5.55;100.00;98121.63;4970223;28;20109;-79
2021/11/17 13:55:03;;;;;;;8.93;5.32;;;;;;;5.63;100.00;98127.28;4971604;28;20062;-79
2021/11/17 13:57:32;;;;;;;10.98;5.30;;;;;;;5.49;100.00;98128.09;4971209;28;20058;-78
2021/11/17 13:59:59;;;;;;;10.43;5.75;;;;;;;5.57;100.00;98135.63;4970002;28;20062;-78
2021/11/17 14:02:26;;;;;;;10.07;6.25;;;;;;;5.54;100.00;98142.34;4970614;28;20059;-79
2021/11/17 14:04:55;;;;;;;9.52;5.60;;;;;;;5.64;100.00;98136.94;4956036;28;20058;-80
2021/11/17 14:07:21;;;;;;;10.38;5.45;;;;;;;5.68;100.00;98142.56;4971193;28;20070;-79
2021/11/17 14:09:48;;;;;;;10.15;5.05;;;;;;;5.60;100.00;98135.88;4979948;28;20035;-79
2021/11/17 14:12:16;;;;;;;11.63;6.00;;;;;;;5.58;100.00;98138.03;4988617;28;20055;-79
2021/11/17 14:14:43;;;;;;;10.00;5.40;;;;;;;5.72;100.00;98142.84;4984099;28;20054;-78
2021/11/17 14:17:10;;;;;;;10.18;5.40;;;;;;;5.73;100.00;98145.25;4952799;28;20121;-79
2021/11/17 14:19:37;;;;;;;8.13;5.03;;;;;;;5.61;100.00;98118.69;4984314;28;20050;-79
2021/11/17 14:22:04;;;;;;;9.63;5.55;;;;;;;5.46;100.00;98118.72;4968168;28;20058;-78
2021/11/17 14:24:31;;;;;;;9.43;5.40;;;;;;;5.42;100.00;98108.78;4967062;28;20069;-79
2021/11/17 14:27:00;;;;;;;7.93;4.78;;;;;;;5.43;100.00;98132.66;4970499;28;20059;-77
2021/11/17 14:29:40;;;;;;;8.93;5.13;;;;;;;5.57;100.00;98127.56;4968327;28;20100;-77
2021/11/17 14:32:11;;;;;;;7.97;5.05;;;;;;;5.52;100.00;98143.69;4948360;28;20777;-79
2021/11/17 14:34:38;;;;;;;7.93;4.75;;;;;;;5.59;100.00;98141.53;4969052;28;20359;-78
2021/11/17 14:37:06;;;;;;;8.23;4.60;;;;;;;5.46;100.00;98147.44;4948233;29;20625;-79
2021/11/17 14:39:43;;;;;;;7.82;4.68;;;;;;;5.59;100.00;98142.31;4959756;28;20141;-79
2021/11/17 14:42:11;;;;;;;7.80;4.53;;;;;;;5.53;100.00;98142.59;4953304;28;20474;-78
2021/11/17 14:44:40;;;;;;;8.80;5.20;;;;;;;5.48;100.00;98131.84;4968061;28;20055;-78
2021/11/17 14:47:06;;;;;;;8.60;5.25;;;;;;;5.36;100.00;98139.38;4971411;28;20063;-78
2021/11/17 14:49:34;;;;;;;8.15;4.47;;;;;;;5.32;100.00;98146.34;4952732;28;20059;-78
2021/11/17 14:52:04;;;;;;;7.68;4.32;;;;;;;5.33;100.00;98139.91;4969587;28;20093;-79
2021/11/17 14:54:32;;;;;;;6.70;4.15;;;;;;;5.45;100.00;98135.06;4970602;28;20062;-77
2021/11/17 14:57:00;;;;;;;5.68;3.70;;;;;;;5.43;100.00;98145.28;4969911;28;20652;-79
2021/11/17 14:59:27;;;;;;;6.03;3.97;;;;;;;5.31;100.00;98139.38;4952087;28;20166;-79
2021/11/17 15:01:54;;;;;;;7.45;4.10;;;;;;;5.26;100.00;98121.41;4964947;28;20121;-78
2021/11/17 15:04:21;;;;;;;8.50;4.25;;;;;;;5.19;100.00;98123.53;4973348;28;20051;-79
2021/11/17 15:06:50;;;;;;;6.35;3.65;;;;;;;5.10;100.00;98122.47;4974426;28;20494;-79
2021/11/17 15:09:26;;;;;;;8.18;4.22;;;;;;;5.15;100.00;98129.72;4958529;28;20059;-78
2021/11/17 15:12:03;;;;;;;7.40;4.10;;;;;;;5.20;100.00;98140.44;4955434;28;20125;-79
2021/11/17 15:14:31;;;;;;;6.13;3.63;;;;;;;5.11;100.00;98131.31;4957342;28;20082;-78
2021/11/17 15:17:01;;;;;;;9.02;3.83;;;;;;;5.15;100.00;98129.72;4957021;28;20117;-79
2021/11/17 15:19:28;;;;;;;7.15;3.80;;;;;;;4.99;100.00;98102.88;4973255;28;20105;-79
2021/11/17 15:22:01;;;;;;;6.25;3.95;;;;;;;5.12;100.00;98146.34;4956565;28;20078;-80
2021/11/17 15:24:32;;;;;;;6.72;3.90;;;;;;;4.99;100.00;98143.09;4973370;28;20395;-78
2021/11/17 15:27:09;;;;;;;7.60;4.40;;;;;;;4.86;100.00;98119.47;4973499;28;20098;-78
2021/11/17 15:29:43;;;;;;;9.57;4.75;;;;;;;4.76;100.00;98121.34;4954488;28;20050;-79
2021/11/17 15:32:18;;;;;;;8.13;4.50;;;;;;;4.93;100.00;98151.41;4949938;28;20476;-79
2021/11/17 15:34:51;;;;;;;6.70;4.03;;;;;;;4.97;100.00;98153.31;4970584;28;20043;-79
2021/11/17 15:37:18;;;;;;;6.60;3.63;;;;;;;5.01;100.00;98153.56;4954654;28;20381;-79
2021/11/17 15:39:49;;;;;;;7.38;3.92;;;;;;;4.96;100.00;98138.28;4973428;28;20059;-79
2021/11/17 15:42:22;;;;;;;8.63;4.18;;;;;;;4.95;100.00;98131.31;4951944;28;20065;-79
2021/11/17 15:44:53;;;;;;;7.13;3.60;;;;;;;5.10;100.00;98162.72;4973101;28;20338;-79
2021/11/17 15:47:26;;;;;;;6.97;3.95;;;;;;;4.92;100.00;98147.94;4972888;28;20464;-80
2021/11/17 15:49:54;;;;;;;5.18;3.50;;;;;;;5.20;100.00;98180.69;4973176;28;20061;-79
2021/11/17 15:52:30;;;;;;;5.78;3.50;;;;;;;5.08;100.00;98156.00;4973853;28;20529;-79
2021/11/17 15:55:00;;;;;;;6.13;3.60;;;;;;;5.08;100.00;98150.63;4974901;28;20061;-80